Grafische Darstellung der letzten 24 Stunden.
Grafische Darstellung der letzten 48 Stunden.
Grafische Darstellung der letzten 72 Stunden.
Grafische Darstellung der letzten month.

Animated web cam image


Weather report/warning/Metars

Bierset, Belgium (EBLG) 50-39N 005-27E 178M
May 30, 2020 - 01:50 PM EDT / 2020.05.30 1750 UTC
Wind: from the NE (040 degrees) at 14 MPH (12 KT):0
Visibility: greater than 7 mile(s):0
Temperature: 69 F (21 C)
Dew Point: 39 F (4 C)
Relative Humidity: 32%
Pressure (altimeter): 30.12 in. Hg (1020 hPa)
ob: EBLG 301750Z 04012KT CAVOK 21/04 Q1020 NOSIG
cycle: 18
Spa / La Sauveniere, Belgium (EBSP) 50-29N 005-55E 482M
Oct 28, 2010 - 10:00 AM EDT / 2010.10.28 1400 UTC
Visibility: greater than 7 mile(s):0
Sky conditions: mostly clear
Temperature: 95 F (35 C)
Heat index: 95.2 F (35.1 C):1
Dew Point: 60 F (16 C)
Relative Humidity: 32%
Pressure (altimeter): 29.85 in. Hg (1011 hPa)
ob: EBSP 281400Z /////KT 9999 FEW030 35/16 Q1011
cycle: 14



Die Wetterdaten werden alle 2 Minuten gespeichert, aber die Datenübertragung findet jede Minute statt. Die beste Ansicht wird in einer Auflösung von 800 x 600 und "True colour" erzielt. Linie zeigt die relative Luftfeuchtigkeit an.

Drücken Sie bitte auf "Aktualisieren" in Ihrem Browser, um die aktuellsten Daten zu erhalten.

Klicken Sie hier, um eine Übersicht der Durchschnitts- u. Extremwerte für den Monat zu erhalten


Created by "Weather Display" software version 10.37S at this start time/date 09:20:27 30/05/2020